Time;durP1;ratioP1;P1;durP2;ratioP2;P2;SDS_P1;SDS_P2;PMS_P1;PMS_P2;Temp;Humidity;BMP_temperature;BMP_pressure;BME280_temperature;BME280_humidity;BME280_pressure;Samples;Min_cycle;Max_cycle;Signal;HPM_P1;HPM_P2
2023/12/22 00:01:48;;;;;;;2.50;0.50;;;;;;;;;;5024604;28;20805;-71
2023/12/22 00:04:16;;;;;;;3.15;0.70;;;;;;;;;;5026260;28;20419;-70
2023/12/22 00:06:43;;;;;;;1.60;0.63;;;;;;;;;;5018233;28;20418;-72
2023/12/22 00:09:10;;;;;;;1.27;0.60;;;;;;;;;;5025393;28;21039;-72
2023/12/22 00:11:38;;;;;;;2.50;0.80;;;;;;;;;;5033131;28;20473;-72
2023/12/22 00:14:05;;;;;;;3.20;0.85;;;;;;;;;;5025508;28;20415;-72
2023/12/22 00:16:32;;;;;;;2.20;1.08;;;;;;;;;;5024994;28;20438;-71
2023/12/22 00:19:00;;;;;;;3.80;0.90;;;;;;;;;;5026532;28;20423;-73
2023/12/22 00:21:27;;;;;;;2.55;1.20;;;;;;;;;;5027325;28;20412;-71
2023/12/22 00:23:54;;;;;;;4.03;1.00;;;;;;;;;;5024850;28;20440;-71
2023/12/22 00:26:21;;;;;;;3.40;1.70;;;;;;;;;;5026030;28;20411;-71
2023/12/22 00:28:50;;;;;;;3.00;1.20;;;;;;;;;;5026226;28;20419;-72
2023/12/22 00:31:17;;;;;;;5.55;1.10;;;;;;;;;;5028859;28;20450;-71
2023/12/22 00:33:44;;;;;;;3.90;1.00;;;;;;;;;;5024301;28;20446;-72
2023/12/22 00:36:11;;;;;;;6.15;1.20;;;;;;;;;;5026249;28;20426;-71
2023/12/22 00:38:39;;;;;;;4.68;1.08;;;;;;;;;;5027472;28;20447;-71
2023/12/22 00:41:06;;;;;;;5.00;1.27;;;;;;;;;;5032654;28;20410;-71
2023/12/22 00:43:33;;;;;;;5.25;1.33;;;;;;;;;;5031994;28;20486;-71
2023/12/22 00:46:01;;;;;;;6.05;2.10;;;;;;;;;;5030539;28;20443;-71
2023/12/22 00:48:29;;;;;;;5.65;1.50;;;;;;;;;;5029702;28;20666;-71
2023/12/22 00:50:56;;;;;;;2.80;1.37;;;;;;;;;;5029107;28;20893;-71
2023/12/22 00:53:23;;;;;;;5.60;1.63;;;;;;;;;;5028389;28;20435;-73
2023/12/22 00:55:50;;;;;;;3.58;1.23;;;;;;;;;;5029139;28;20465;-71
2023/12/22 00:58:17;;;;;;;5.93;1.60;;;;;;;;;;5028992;28;20441;-71
2023/12/22 01:00:44;;;;;;;7.30;1.70;;;;;;;;;;5031258;28;20415;-72
2023/12/22 01:03:12;;;;;;;6.30;1.45;;;;;;;;;;5033195;28;20419;-69
2023/12/22 01:05:40;;;;;;;4.60;1.20;;;;;;;;;;5029369;28;20793;-73
2023/12/22 01:08:07;;;;;;;4.95;1.40;;;;;;;;;;5027139;28;20913;-73
2023/12/22 01:10:34;;;;;;;5.47;1.40;;;;;;;;;;5030401;28;20441;-71
2023/12/22 01:13:01;;;;;;;4.65;1.70;;;;;;;;;;5022578;28;20456;-70
2023/12/22 01:15:28;;;;;;;4.10;1.40;;;;;;;;;;5027262;28;20540;-71
2023/12/22 01:17:55;;;;;;;5.00;1.60;;;;;;;;;;5029490;28;20775;-72
2023/12/22 01:20:24;;;;;;;4.85;1.48;;;;;;;;;;5029553;28;20811;-71
2023/12/22 01:22:51;;;;;;;5.53;1.50;;;;;;;;;;5029226;28;20890;-72
2023/12/22 01:25:18;;;;;;;6.03;1.80;;;;;;;;;;5029090;28;20445;-72
2023/12/22 01:27:46;;;;;;;6.95;1.70;;;;;;;;;;5027290;28;20438;-72
2023/12/22 01:30:13;;;;;;;5.07;1.30;;;;;;;;;;5028804;28;20454;-72
2023/12/22 01:32:40;;;;;;;5.90;2.00;;;;;;;;;;5029753;28;20423;-72
2023/12/22 01:35:09;;;;;;;5.67;1.40;;;;;;;;;;5029740;28;20499;-71
2023/12/22 01:37:38;;;;;;;4.53;1.42;;;;;;;;;;5027684;28;20985;-72
2023/12/22 01:40:05;;;;;;;4.38;1.30;;;;;;;;;;5027883;28;20999;-72
2023/12/22 01:42:32;;;;;;;5.75;1.60;;;;;;;;;;5029559;28;20425;-71
2023/12/22 01:44:59;;;;;;;7.47;1.88;;;;;;;;;;5034460;28;20414;-72
2023/12/22 01:47:27;;;;;;;4.73;1.90;;;;;;;;;;5028393;28;20786;-73
2023/12/22 01:49:54;;;;;;;5.25;1.35;;;;;;;;;;5057401;22;20839;-69
2023/12/22 01:52:22;;;;;;;4.55;1.75;;;;;;;;;;5042077;28;20435;-69
2023/12/22 01:54:51;;;;;;;5.68;1.60;;;;;;;;;;5043702;28;20491;-70
2023/12/22 01:57:18;;;;;;;3.57;1.30;;;;;;;;;;5043642;28;20430;-70
2023/12/22 01:59:46;;;;;;;7.32;2.10;;;;;;;;;;5041025;28;20950;-69
2023/12/22 02:02:13;;;;;;;5.93;2.20;;;;;;;;;;5047115;28;20476;-70
2023/12/22 02:04:41;;;;;;;5.73;1.70;;;;;;;;;;5043321;28;20899;-69
2023/12/22 02:07:10;;;;;;;5.95;1.77;;;;;;;;;;5045020;28;20420;-69
2023/12/22 02:09:37;;;;;;;8.43;1.90;;;;;;;;;;5036264;28;20514;-70
2023/12/22 02:12:06;;;;;;;7.72;2.10;;;;;;;;;;5052580;28;20483;-69
2023/12/22 02:14:33;;;;;;;5.00;1.60;;;;;;;;;;5054654;28;20423;-70
2023/12/22 02:17:04;;;;;;;5.37;2.00;;;;;;;;;;5041089;28;20413;-69
2023/12/22 02:19:41;;;;;;;5.88;1.90;;;;;;;;;;5041668;28;20447;-69
2023/12/22 02:22:09;;;;;;;7.97;1.67;;;;;;;;;;5041880;28;20523;-70
2023/12/22 02:24:37;;;;;;;9.18;1.90;;;;;;;;;;5044546;28;20420;-69
2023/12/22 02:27:06;;;;;;;7.03;2.55;;;;;;;;;;5050337;28;20475;-69
2023/12/22 02:29:35;;;;;;;5.25;1.80;;;;;;;;;;5034195;28;20902;-70
2023/12/22 02:32:04;;;;;;;5.80;1.83;;;;;;;;;;5044690;28;20519;-70
2023/12/22 02:34:32;;;;;;;7.65;2.00;;;;;;;;;;5051996;28;20593;-69
2023/12/22 02:36:59;;;;;;;7.85;2.10;;;;;;;;;;5047007;28;20431;-70
2023/12/22 02:39:26;;;;;;;8.68;2.45;;;;;;;;;;5035438;28;20745;-70
2023/12/22 02:41:54;;;;;;;7.15;2.25;;;;;;;;;;5043855;28;20972;-69
2023/12/22 02:44:22;;;;;;;6.93;2.13;;;;;;;;;;5043140;28;20484;-69
2023/12/22 02:46:49;;;;;;;10.30;2.60;;;;;;;;;;5044244;28;20409;-70
2023/12/22 02:49:17;;;;;;;7.38;2.40;;;;;;;;;;5040948;28;20684;-70
2023/12/22 02:51:44;;;;;;;8.18;2.50;;;;;;;;;;5033808;28;20429;-70
2023/12/22 02:54:11;;;;;;;9.57;2.50;;;;;;;;;;5043537;28;20898;-70
2023/12/22 02:56:38;;;;;;;8.65;2.30;;;;;;;;;;5043951;28;20413;-70
2023/12/22 02:59:06;;;;;;;8.20;2.60;;;;;;;;;;5043870;28;20436;-68
2023/12/22 03:01:33;;;;;;;9.82;2.50;;;;;;;;;;5041099;28;20406;-69
2023/12/22 03:04:00;;;;;;;6.20;2.10;;;;;;;;;;5049281;28;20418;-70
2023/12/22 03:06:27;;;;;;;6.13;2.80;;;;;;;;;;5042348;28;20417;-69
2023/12/22 03:08:54;;;;;;;7.97;2.28;;;;;;;;;;5038791;28;20501;-69
2023/12/22 03:11:21;;;;;;;8.63;2.08;;;;;;;;;;5045950;28;20931;-70
2023/12/22 03:13:48;;;;;;;6.95;2.17;;;;;;;;;;5044963;28;20423;-70
2023/12/22 03:16:17;;;;;;;7.88;2.50;;;;;;;;;;5059006;28;20519;-70
2023/12/22 03:18:44;;;;;;;8.07;2.30;;;;;;;;;;5041892;28;20413;-70
2023/12/22 03:21:17;;;;;;;5.72;2.20;;;;;;;;;;5051554;28;20424;-70
2023/12/22 03:23:44;;;;;;;7.32;2.53;;;;;;;;;;5041584;28;20495;-70
2023/12/22 03:26:11;;;;;;;7.67;2.90;;;;;;;;;;5039562;28;20417;-70
2023/12/22 03:28:38;;;;;;;9.65;2.30;;;;;;;;;;5047439;28;20421;-70
2023/12/22 03:31:06;;;;;;;7.53;2.40;;;;;;;;;;5055697;28;20438;-69
2023/12/22 03:33:35;;;;;;;7.07;2.83;;;;;;;;;;5046433;28;20428;-70
2023/12/22 03:36:02;;;;;;;9.30;3.30;;;;;;;;;;5055911;28;20508;-70
2023/12/22 03:38:29;;;;;;;12.00;2.70;;;;;;;;;;5045773;28;20511;-70
2023/12/22 03:40:56;;;;;;;11.18;3.00;;;;;;;;;;5051184;28;20409;-69
2023/12/22 03:43:23;;;;;;;8.95;2.78;;;;;;;;;;5041316;28;20413;-70
2023/12/22 03:45:50;;;;;;;11.60;3.05;;;;;;;;;;5048203;28;20417;-69
2023/12/22 03:48:17;;;;;;;9.23;3.05;;;;;;;;;;5041331;28;20798;-70
2023/12/22 03:50:45;;;;;;;7.63;2.60;;;;;;;;;;5043853;28;20755;-69
2023/12/22 03:53:12;;;;;;;8.93;2.60;;;;;;;;;;5041816;28;20895;-70
2023/12/22 03:55:39;;;;;;;11.65;3.08;;;;;;;;;;5038123;28;20452;-70
2023/12/22 03:58:07;;;;;;;10.57;2.53;;;;;;;;;;5042600;28;20527;-69
2023/12/22 04:00:35;;;;;;;10.05;3.10;;;;;;;;;;5042751;28;20410;-69
2023/12/22 04:03:02;;;;;;;10.65;2.60;;;;;;;;;;5044778;28;20753;-70
2023/12/22 04:05:29;;;;;;;7.50;2.50;;;;;;;;;;5039795;28;20453;-69
2023/12/22 04:07:58;;;;;;;7.80;1.90;;;;;;;;;;5047104;28;20866;-70
2023/12/22 04:10:25;;;;;;;6.32;2.17;;;;;;;;;;5049378;28;20422;-70
2023/12/22 04:12:52;;;;;;;6.85;2.00;;;;;;;;;;5046766;28;20552;-70
2023/12/22 04:15:19;;;;;;;5.22;1.77;;;;;;;;;;5049089;28;20409;-70
2023/12/22 04:17:46;;;;;;;7.15;2.10;;;;;;;;;;5045881;28;20423;-70
2023/12/22 04:20:13;;;;;;;6.82;1.85;;;;;;;;;;5047568;28;20436;-69
2023/12/22 04:22:40;;;;;;;8.15;1.90;;;;;;;;;;5046506;28;20425;-70
2023/12/22 04:25:09;;;;;;;6.55;2.20;;;;;;;;;;5048011;28;20432;-70
2023/12/22 04:27:36;;;;;;;7.23;2.00;;;;;;;;;;5055160;28;20510;-71
2023/12/22 04:30:03;;;;;;;7.15;1.77;;;;;;;;;;5049450;28;20421;-70
2023/12/22 04:32:30;;;;;;;6.80;1.42;;;;;;;;;;5050029;28;20436;-71
2023/12/22 04:34:57;;;;;;;8.23;1.98;;;;;;;;;;5060923;28;20421;-71
2023/12/22 04:37:24;;;;;;;8.65;2.08;;;;;;;;;;5045262;28;20923;-71
2023/12/22 04:39:51;;;;;;;8.88;1.85;;;;;;;;;;5048400;28;20447;-71
2023/12/22 04:42:20;;;;;;;5.35;2.20;;;;;;;;;;5048699;28;20428;-71
2023/12/22 04:44:47;;;;;;;4.95;2.03;;;;;;;;;;5042784;28;20417;-71
2023/12/22 04:47:14;;;;;;;4.90;1.90;;;;;;;;;;5047368;28;20513;-71
2023/12/22 04:49:41;;;;;;;7.80;2.08;;;;;;;;;;5044876;28;20448;-71
2023/12/22 04:52:08;;;;;;;4.10;1.52;;;;;;;;;;5048060;28;20440;-70
2023/12/22 04:54:35;;;;;;;7.22;2.40;;;;;;;;;;5048171;28;20421;-71
2023/12/22 04:57:03;;;;;;;6.20;2.08;;;;;;;;;;5064422;28;20418;-71
2023/12/22 04:59:31;;;;;;;8.82;1.88;;;;;;;;;;5056579;28;20496;-71
2023/12/22 05:01:58;;;;;;;8.50;2.50;;;;;;;;;;5050094;28;20862;-71
2023/12/22 05:04:25;;;;;;;6.75;1.98;;;;;;;;;;5048476;28;20984;-71
2023/12/22 05:06:52;;;;;;;6.65;2.22;;;;;;;;;;5048095;28;20417;-71
2023/12/22 05:09:19;;;;;;;5.63;1.70;;;;;;;;;;5056704;28;20407;-71
2023/12/22 05:11:46;;;;;;;10.10;2.70;;;;;;;;;;5050263;28;20482;-71
2023/12/22 05:14:13;;;;;;;8.25;2.40;;;;;;;;;;5053717;28;20895;-71
2023/12/22 05:16:42;;;;;;;5.47;2.30;;;;;;;;;;5055517;28;20877;-71
2023/12/22 05:19:09;;;;;;;5.65;2.25;;;;;;;;;;5053016;28;20432;-71
2023/12/22 05:21:36;;;;;;;7.28;2.30;;;;;;;;;;5048770;28;20424;-71
2023/12/22 05:24:03;;;;;;;6.68;1.98;;;;;;;;;;5043875;28;20541;-71
2023/12/22 05:26:31;;;;;;;7.65;1.90;;;;;;;;;;5041958;28;20536;-71
2023/12/22 05:28:58;;;;;;;8.85;2.35;;;;;;;;;;5042133;28;20451;-71
2023/12/22 05:31:26;;;;;;;5.47;2.17;;;;;;;;;;5051958;28;20432;-70
2023/12/22 05:33:54;;;;;;;5.45;2.10;;;;;;;;;;5052372;28;20535;-71
2023/12/22 05:36:21;;;;;;;6.67;2.50;;;;;;;;;;5042978;28;20436;-71
2023/12/22 05:38:48;;;;;;;7.97;2.40;;;;;;;;;;5054406;28;20420;-71
2023/12/22 05:41:15;;;;;;;8.33;2.40;;;;;;;;;;5054593;28;20653;-71
2023/12/22 05:43:42;;;;;;;9.48;2.60;;;;;;;;;;5044283;28;20521;-71
2023/12/22 05:46:10;;;;;;;7.07;2.28;;;;;;;;;;5042653;28;20896;-71
2023/12/22 05:48:37;;;;;;;9.25;2.20;;;;;;;;;;5044552;28;20488;-71
2023/12/22 05:51:13;;;;;;;8.07;2.30;;;;;;;;;;5044606;28;20433;-71
2023/12/22 05:53:40;;;;;;;7.70;2.13;;;;;;;;;;5051894;28;20445;-72
2023/12/22 05:56:07;;;;;;;6.78;2.40;;;;;;;;;;5057440;28;20407;-72
2023/12/22 05:58:34;;;;;;;8.30;2.20;;;;;;;;;;5045175;28;20441;-72
2023/12/22 06:01:01;;;;;;;8.90;2.75;;;;;;;;;;5041553;28;20432;-71
2023/12/22 06:03:28;;;;;;;7.22;2.78;;;;;;;;;;5043409;28;20439;-71
2023/12/22 06:05:56;;;;;;;10.38;2.60;;;;;;;;;;5041138;28;20735;-71
2023/12/22 06:08:24;;;;;;;8.30;2.50;;;;;;;;;;5048195;28;20414;-71
2023/12/22 06:10:51;;;;;;;7.05;2.50;;;;;;;;;;5036793;28;20888;-71
2023/12/22 06:13:19;;;;;;;9.30;2.25;;;;;;;;;;5052605;28;20430;-71
2023/12/22 06:15:46;;;;;;;8.00;2.40;;;;;;;;;;5041289;28;20437;-72
2023/12/22 06:18:13;;;;;;;8.52;2.30;;;;;;;;;;5042055;28;20426;-71
2023/12/22 06:20:40;;;;;;;7.82;2.50;;;;;;;;;;5041605;28;20433;-72
2023/12/22 06:23:07;;;;;;;5.50;1.90;;;;;;;;;;5041689;28;20840;-72
2023/12/22 06:25:36;;;;;;;7.63;2.20;;;;;;;;;;5045465;28;20827;-71
2023/12/22 06:28:03;;;;;;;7.60;2.13;;;;;;;;;;5047979;28;20880;-72
2023/12/22 06:30:31;;;;;;;7.20;2.70;;;;;;;;;;5052562;28;21009;-71
2023/12/22 06:32:58;;;;;;;8.95;2.80;;;;;;;;;;5047881;28;20859;-72
2023/12/22 06:35:25;;;;;;;7.32;2.25;;;;;;;;;;5041779;28;20455;-72
2023/12/22 06:37:54;;;;;;;8.30;2.55;;;;;;;;;;5041468;28;20531;-71
2023/12/22 06:40:21;;;;;;;9.40;2.40;;;;;;;;;;5043011;28;20421;-72
2023/12/22 06:42:49;;;;;;;10.40;2.60;;;;;;;;;;5042169;28;20938;-72
2023/12/22 06:45:16;;;;;;;6.40;1.90;;;;;;;;;;5043538;28;20441;-71
2023/12/22 06:47:43;;;;;;;7.30;2.33;;;;;;;;;;5043109;28;20911;-71
2023/12/22 06:50:10;;;;;;;7.00;2.50;;;;;;;;;;5040436;28;20576;-72
2023/12/22 06:52:37;;;;;;;6.95;2.10;;;;;;;;;;5043253;28;20437;-72
2023/12/22 06:55:05;;;;;;;7.60;2.42;;;;;;;;;;5060093;28;20411;-71
2023/12/22 06:57:32;;;;;;;4.45;1.20;;;;;;;;;;5043289;28;20895;-71
2023/12/22 07:00:00;;;;;;;3.37;0.60;;;;;;;;;;5042462;28;20828;-71
2023/12/22 07:02:27;;;;;;;3.80;0.60;;;;;;;;;;5043086;28;20495;-71
2023/12/22 07:05:06;;;;;;;2.05;0.93;;;;;;;;;;5047308;28;20421;-71
2023/12/22 07:07:33;;;;;;;4.27;1.10;;;;;;;;;;5043933;28;20782;-71
2023/12/22 07:10:00;;;;;;;3.03;1.00;;;;;;;;;;5045845;28;20478;-70
2023/12/22 07:12:27;;;;;;;3.80;0.90;;;;;;;;;;5046915;28;20593;-70
2023/12/22 07:14:54;;;;;;;8.10;1.40;;;;;;;;;;5043493;28;20417;-71
2023/12/22 07:17:23;;;;;;;4.10;1.40;;;;;;;;;;5041181;28;20424;-71
2023/12/22 07:19:51;;;;;;;3.08;1.30;;;;;;;;;;5040906;28;20425;-71
2023/12/22 07:22:19;;;;;;;3.63;1.38;;;;;;;;;;5043534;28;20416;-71
2023/12/22 07:24:47;;;;;;;3.70;1.70;;;;;;;;;;5040744;28;20433;-71
2023/12/22 07:27:14;;;;;;;8.18;2.28;;;;;;;;;;5033038;28;20423;-71
2023/12/22 07:29:41;;;;;;;3.45;1.70;;;;;;;;;;5039137;28;20744;-71
2023/12/22 07:32:08;;;;;;;7.40;2.40;;;;;;;;;;5041609;28;20567;-70
2023/12/22 07:34:36;;;;;;;15.50;3.83;;;;;;;;;;5039857;28;20436;-70
2023/12/22 07:37:04;;;;;;;14.30;3.80;;;;;;;;;;5040075;28;20443;-69
2023/12/22 07:39:31;;;;;;;11.60;3.80;;;;;;;;;;5049813;28;20429;-71
2023/12/22 07:41:58;;;;;;;11.57;3.60;;;;;;;;;;5043664;28;20442;-70
2023/12/22 07:44:25;;;;;;;10.95;3.58;;;;;;;;;;5037959;28;20433;-70
2023/12/22 07:46:59;;;;;;;11.02;3.13;;;;;;;;;;5038267;28;20433;-69
2023/12/22 07:49:26;;;;;;;12.90;4.30;;;;;;;;;;5037295;28;20641;-71
2023/12/22 07:51:55;;;;;;;10.40;3.55;;;;;;;;;;5040501;28;20425;-70
2023/12/22 07:54:22;;;;;;;13.80;3.97;;;;;;;;;;5039865;28;20751;-70
2023/12/22 07:56:49;;;;;;;13.88;4.70;;;;;;;;;;5047126;28;20417;-73
2023/12/22 07:59:16;;;;;;;12.65;3.92;;;;;;;;;;5041125;28;20516;-71
2023/12/22 08:01:43;;;;;;;16.38;4.70;;;;;;;;;;5039686;28;20795;-71
2023/12/22 08:04:10;;;;;;;12.00;4.22;;;;;;;;;;5042396;28;20898;-71
2023/12/22 08:06:37;;;;;;;16.30;4.60;;;;;;;;;;5038115;28;20424;-70
2023/12/22 08:09:05;;;;;;;16.00;5.18;;;;;;;;;;5043458;28;20489;-71
2023/12/22 08:11:33;;;;;;;13.43;4.20;;;;;;;;;;5044428;28;20520;-70
2023/12/22 08:14:00;;;;;;;13.95;3.90;;;;;;;;;;5041973;28;20417;-73
2023/12/22 08:16:27;;;;;;;11.95;4.38;;;;;;;;;;5040340;28;20447;-71
2023/12/22 08:18:54;;;;;;;8.65;3.10;;;;;;;;;;5048996;28;20420;-71
2023/12/22 08:21:21;;;;;;;7.85;2.88;;;;;;;;;;5040253;28;20413;-72
2023/12/22 08:23:48;;;;;;;7.88;2.70;;;;;;;;;;5048201;28;20409;-72
2023/12/22 08:26:17;;;;;;;13.50;4.03;;;;;;;;;;5039378;28;20420;-72
2023/12/22 08:28:44;;;;;;;12.25;4.30;;;;;;;;;;5041192;28;20861;-72
2023/12/22 08:31:12;;;;;;;13.10;5.40;;;;;;;;;;5043482;28;20433;-71
2023/12/22 08:33:43;;;;;;;15.00;5.65;;;;;;;;;;5050069;28;20478;-71
2023/12/22 08:36:10;;;;;;;16.67;7.30;;;;;;;;;;5041879;28;20481;-70
2023/12/22 08:38:40;;;;;;;22.00;7.15;;;;;;;;;;5038418;28;20424;-71
2023/12/22 08:41:07;;;;;;;18.30;6.50;;;;;;;;;;5041654;28;20421;-71
2023/12/22 08:43:35;;;;;;;17.52;5.90;;;;;;;;;;5039870;28;20420;-71
2023/12/22 08:46:02;;;;;;;18.80;5.97;;;;;;;;;;5037645;28;20868;-71
2023/12/22 08:48:29;;;;;;;16.42;5.43;;;;;;;;;;5036340;28;20589;-73
2023/12/22 08:50:56;;;;;;;21.02;5.97;;;;;;;;;;5031365;28;20781;-71
2023/12/22 08:53:23;;;;;;;13.90;4.78;;;;;;;;;;5041661;28;20432;-72
2023/12/22 08:55:50;;;;;;;14.97;4.20;;;;;;;;;;5036730;28;20480;-72
2023/12/22 08:58:18;;;;;;;13.60;4.80;;;;;;;;;;5040704;28;20425;-72
2023/12/22 09:00:46;;;;;;;16.80;5.90;;;;;;;;;;5033225;28;20442;-72
2023/12/22 09:03:13;;;;;;;14.30;4.10;;;;;;;;;;5042902;28;21095;-72
2023/12/22 09:05:40;;;;;;;17.02;4.57;;;;;;;;;;5033634;28;20436;-72
2023/12/22 09:08:07;;;;;;;15.20;5.10;;;;;;;;;;5043863;28;20421;-72
2023/12/22 09:10:35;;;;;;;13.52;4.80;;;;;;;;;;5048446;28;20432;-72
2023/12/22 09:13:02;;;;;;;12.73;4.20;;;;;;;;;;5047067;28;20429;-71
2023/12/22 09:15:29;;;;;;;13.73;4.30;;;;;;;;;;5043867;28;20477;-72
2023/12/22 09:17:57;;;;;;;14.18;4.47;;;;;;;;;;5038494;28;20925;-72
2023/12/22 09:20:24;;;;;;;8.80;4.07;;;;;;;;;;5038627;28;20438;-73
2023/12/22 09:22:52;;;;;;;14.48;4.07;;;;;;;;;;5045424;28;20436;-72
2023/12/22 09:25:19;;;;;;;14.55;4.30;;;;;;;;;;5031166;28;20425;-73
2023/12/22 09:27:46;;;;;;;13.82;4.93;;;;;;;;;;5046817;28;21122;-73
2023/12/22 09:30:13;;;;;;;15.32;3.95;;;;;;;;;;5037436;28;20417;-73
2023/12/22 09:32:40;;;;;;;14.93;5.18;;;;;;;;;;5042770;28;20433;-72
2023/12/22 09:35:09;;;;;;;14.10;5.10;;;;;;;;;;5040165;28;20428;-72
2023/12/22 09:37:36;;;;;;;11.30;4.10;;;;;;;;;;5043252;28;20417;-69
2023/12/22 09:40:03;;;;;;;14.32;4.72;;;;;;;;;;5042301;28;20780;-72
2023/12/22 09:42:30;;;;;;;14.45;3.90;;;;;;;;;;5040550;28;20847;-71
2023/12/22 09:45:00;;;;;;;8.90;3.30;;;;;;;;;;5035506;28;20472;-71
2023/12/22 09:47:29;;;;;;;9.75;3.60;;;;;;;;;;5041876;28;20405;-74
2023/12/22 09:49:56;;;;;;;11.07;3.58;;;;;;;;;;5042370;28;20419;-71
2023/12/22 09:52:25;;;;;;;10.00;3.60;;;;;;;;;;5041227;28;20433;-72
2023/12/22 09:54:54;;;;;;;11.57;3.75;;;;;;;;;;5043673;28;20405;-70
2023/12/22 09:57:22;;;;;;;7.90;3.25;;;;;;;;;;5036990;28;20759;-70
2023/12/22 09:59:50;;;;;;;11.98;3.60;;;;;;;;;;5035539;28;20832;-70
2023/12/22 10:02:17;;;;;;;10.40;3.20;;;;;;;;;;5045057;28;20527;-70
2023/12/22 10:04:44;;;;;;;10.13;2.67;;;;;;;;;;5040404;28;20421;-70
2023/12/22 10:07:14;;;;;;;8.80;2.92;;;;;;;;;;5043008;28;20559;-72
2023/12/22 10:09:45;;;;;;;8.20;3.13;;;;;;;;;;5041963;28;20417;-72
2023/12/22 10:12:13;;;;;;;9.63;3.50;;;;;;;;;;5041430;28;20736;-72
2023/12/22 10:14:40;;;;;;;8.32;2.78;;;;;;;;;;5043445;28;20445;-72
2023/12/22 10:17:07;;;;;;;9.45;3.10;;;;;;;;;;5042039;28;20915;-72
2023/12/22 10:19:35;;;;;;;5.72;3.10;;;;;;;;;;5042157;28;20513;-72
2023/12/22 10:22:02;;;;;;;5.32;2.63;;;;;;;;;;5043299;28;20627;-72
2023/12/22 10:24:37;;;;;;;7.97;2.90;;;;;;;;;;5043584;28;20413;-72
2023/12/22 10:27:06;;;;;;;5.00;2.17;;;;;;;;;;5035452;28;20421;-73
2023/12/22 10:29:33;;;;;;;5.55;2.20;;;;;;;;;;5043866;28;20429;-72
2023/12/22 10:32:02;;;;;;;6.00;2.60;;;;;;;;;;5044053;28;20863;-73
2023/12/22 10:34:29;;;;;;;6.60;2.65;;;;;;;;;;5041346;28;20436;-72
2023/12/22 10:36:56;;;;;;;4.80;1.70;;;;;;;;;;5038817;28;20439;-72
2023/12/22 10:39:23;;;;;;;5.70;2.00;;;;;;;;;;5035058;28;20417;-72
2023/12/22 10:41:51;;;;;;;6.37;1.90;;;;;;;;;;5038445;28;20424;-72
2023/12/22 10:44:19;;;;;;;2.95;1.77;;;;;;;;;;5043589;28;20524;-72
2023/12/22 10:46:48;;;;;;;3.03;1.98;;;;;;;;;;5043874;28;20424;-72
2023/12/22 10:49:16;;;;;;;5.13;1.90;;;;;;;;;;5044925;28;20417;-72
2023/12/22 10:51:43;;;;;;;4.18;2.13;;;;;;;;;;5044073;28;21020;-72
2023/12/22 10:54:10;;;;;;;5.20;2.38;;;;;;;;;;5044893;28;20493;-73
2023/12/22 10:56:37;;;;;;;5.60;3.00;;;;;;;;;;5039966;28;20898;-72
2023/12/22 10:59:05;;;;;;;4.57;2.30;;;;;;;;;;5045060;28;20413;-72
2023/12/22 11:01:34;;;;;;;6.40;2.80;;;;;;;;;;5044117;28;20784;-72
2023/12/22 11:04:04;;;;;;;4.60;2.70;;;;;;;;;;5041420;28;20413;-71
2023/12/22 11:06:31;;;;;;;4.18;2.80;;;;;;;;;;5041387;28;20441;-71
2023/12/22 11:08:59;;;;;;;4.78;2.30;;;;;;;;;;5041746;28;20428;-72
2023/12/22 11:11:29;;;;;;;3.85;2.00;;;;;;;;;;5053405;28;20425;-71
2023/12/22 11:13:57;;;;;;;4.00;2.78;;;;;;;;;;5036765;28;20713;-73
2023/12/22 11:16:25;;;;;;;3.30;1.70;;;;;;;;;;5041543;28;20895;-72
2023/12/22 11:18:55;;;;;;;2.60;1.77;;;;;;;;;;5043650;28;20440;-72
2023/12/22 11:21:23;;;;;;;3.10;1.80;;;;;;;;;;5041648;28;20807;-72
2023/12/22 11:23:51;;;;;;;2.75;2.00;;;;;;;;;;5039774;28;20748;-72
2023/12/22 11:26:18;;;;;;;3.10;1.90;;;;;;;;;;5039151;28;20521;-72
2023/12/22 11:28:46;;;;;;;3.47;2.00;;;;;;;;;;5040397;28;20926;-73
2023/12/22 11:31:13;;;;;;;2.70;1.80;;;;;;;;;;5039550;28;20425;-73
2023/12/22 11:33:41;;;;;;;2.75;2.08;;;;;;;;;;5036820;28;20860;-73
2023/12/22 11:36:11;;;;;;;3.25;2.38;;;;;;;;;;5040785;28;20413;-73
2023/12/22 11:38:38;;;;;;;3.35;2.65;;;;;;;;;;5043031;28;20839;-74
2023/12/22 11:41:06;;;;;;;3.63;2.20;;;;;;;;;;5037943;28;20499;-70
2023/12/22 11:43:34;;;;;;;3.40;2.25;;;;;;;;;;5040422;28;20418;-69
2023/12/22 11:46:02;;;;;;;3.67;2.25;;;;;;;;;;5040896;28;20417;-70
2023/12/22 11:48:30;;;;;;;4.00;2.50;;;;;;;;;;5043382;28;20494;-70
2023/12/22 11:50:57;;;;;;;2.70;2.20;;;;;;;;;;5038776;28;20433;-70
2023/12/22 11:53:26;;;;;;;4.07;2.70;;;;;;;;;;5041568;28;20591;-71
2023/12/22 11:56:04;;;;;;;3.53;2.30;;;;;;;;;;5043099;28;20414;-70
2023/12/22 11:58:34;;;;;;;3.20;2.08;;;;;;;;;;5042130;28;20421;-70
2023/12/22 12:01:03;;;;;;;3.00;1.90;;;;;;;;;;5040550;28;20425;-70
2023/12/22 12:03:31;;;;;;;3.20;1.70;;;;;;;;;;5043437;28;20421;-71
2023/12/22 12:06:11;;;;;;;3.28;1.88;;;;;;;;;;5040653;28;20895;-70
2023/12/22 12:08:40;;;;;;;3.93;1.60;;;;;;;;;;5044281;28;20592;-70
2023/12/22 12:11:07;;;;;;;3.90;1.77;;;;;;;;;;5041526;28;20511;-70
2023/12/22 12:13:35;;;;;;;2.10;1.50;;;;;;;;;;5042229;28;20891;-71
2023/12/22 12:16:02;;;;;;;2.45;1.60;;;;;;;;;;5041265;28;20544;-70
2023/12/22 12:18:30;;;;;;;2.00;1.40;;;;;;;;;;5042215;28;20556;-70
2023/12/22 12:20:57;;;;;;;2.85;1.63;;;;;;;;;;5042338;28;20437;-70
2023/12/22 12:23:26;;;;;;;3.10;1.63;;;;;;;;;;5042839;28;20418;-71
2023/12/22 12:25:54;;;;;;;3.33;1.77;;;;;;;;;;5041019;28;20463;-70
2023/12/22 12:28:26;;;;;;;3.78;2.10;;;;;;;;;;5042023;28;20414;-70
2023/12/22 12:30:59;;;;;;;2.28;1.90;;;;;;;;;;5042562;28;20861;-70
2023/12/22 12:33:26;;;;;;;3.25;1.58;;;;;;;;;;5044506;28;20498;-70
2023/12/22 12:35:54;;;;;;;3.22;1.50;;;;;;;;;;5045748;28;20891;-70
2023/12/22 12:38:22;;;;;;;4.03;1.90;;;;;;;;;;5046760;28;20440;-70
2023/12/22 12:40:51;;;;;;;5.40;2.20;;;;;;;;;;5046387;28;20431;-71
2023/12/22 12:43:20;;;;;;;2.88;1.60;;;;;;;;;;5045630;28;20718;-71
2023/12/22 12:45:47;;;;;;;3.72;2.10;;;;;;;;;;5044699;28;20417;-69
2023/12/22 12:48:17;;;;;;;3.83;1.80;;;;;;;;;;5045680;28;20509;-70
2023/12/22 12:50:46;;;;;;;3.00;2.00;;;;;;;;;;5045987;28;20506;-70
2023/12/22 12:53:13;;;;;;;5.93;1.80;;;;;;;;;;5047556;28;20523;-70
2023/12/22 12:55:40;;;;;;;2.97;1.23;;;;;;;;;;5044736;28;20436;-70
2023/12/22 12:58:07;;;;;;;5.38;1.95;;;;;;;;;;5043835;28;20417;-70
2023/12/22 13:00:36;;;;;;;3.78;1.27;;;;;;;;;;5045540;28;20428;-68
2023/12/22 13:03:04;;;;;;;3.35;1.40;;;;;;;;;;5047028;28;20436;-70
2023/12/22 13:05:31;;;;;;;3.03;1.30;;;;;;;;;;5046071;28;20508;-69
2023/12/22 13:08:08;;;;;;;2.45;1.50;;;;;;;;;;5044853;28;20547;-69
2023/12/22 13:10:35;;;;;;;3.60;1.40;;;;;;;;;;5045609;28;20440;-68
2023/12/22 13:13:02;;;;;;;2.67;1.63;;;;;;;;;;5037841;28;20535;-69
2023/12/22 13:15:30;;;;;;;2.17;1.20;;;;;;;;;;5046760;28;20448;-69
2023/12/22 13:17:58;;;;;;;2.15;1.20;;;;;;;;;;5045903;28;20784;-70
2023/12/22 13:20:25;;;;;;;3.73;1.33;;;;;;;;;;5044497;28;20893;-69
2023/12/22 13:22:52;;;;;;;2.90;1.05;;;;;;;;;;5043344;28;20444;-70
2023/12/22 13:25:21;;;;;;;3.87;1.10;;;;;;;;;;5044727;28;20462;-69
2023/12/22 13:27:48;;;;;;;2.38;1.20;;;;;;;;;;5043459;28;20868;-69
2023/12/22 13:30:15;;;;;;;3.13;1.10;;;;;;;;;;5045761;28;20420;-68
2023/12/22 13:32:42;;;;;;;2.40;1.40;;;;;;;;;;5044847;28;20435;-68
2023/12/22 13:35:10;;;;;;;2.90;1.33;;;;;;;;;;5043624;28;20525;-68
2023/12/22 13:37:42;;;;;;;2.42;1.42;;;;;;;;;;5041564;28;20432;-68
2023/12/22 13:40:10;;;;;;;3.58;1.88;;;;;;;;;;5041594;28;20905;-70
2023/12/22 13:42:38;;;;;;;2.70;1.40;;;;;;;;;;5042994;28;20433;-69
2023/12/22 13:45:06;;;;;;;2.40;1.30;;;;;;;;;;5043325;28;20496;-69
2023/12/22 13:47:33;;;;;;;3.92;1.55;;;;;;;;;;5042277;28;20413;-68
2023/12/22 13:50:00;;;;;;;5.30;2.20;;;;;;;;;;5057113;28;20461;-69
2023/12/22 13:52:34;;;;;;;3.15;1.90;;;;;;;;;;5050095;28;20413;-69
2023/12/22 13:55:02;;;;;;;2.80;1.60;;;;;;;;;;5046387;28;20451;-69
2023/12/22 13:57:29;;;;;;;2.92;1.23;;;;;;;;;;5042540;28;20537;-69
2023/12/22 13:59:56;;;;;;;3.22;1.55;;;;;;;;;;5043329;28;20499;-70
2023/12/22 14:02:23;;;;;;;3.60;2.00;;;;;;;;;;5044882;28;20414;-70
2023/12/22 14:04:51;;;;;;;4.80;2.20;;;;;;;;;;5043862;28;20424;-69
2023/12/22 14:07:18;;;;;;;3.75;1.80;;;;;;;;;;5042824;28;20937;-69
2023/12/22 14:09:47;;;;;;;3.55;1.70;;;;;;;;;;5043607;28;20463;-77
2023/12/22 14:12:14;;;;;;;4.30;2.20;;;;;;;;;;5042511;28;20424;-75
2023/12/22 14:14:41;;;;;;;4.50;2.70;;;;;;;;;;5042349;28;20819;-76
2023/12/22 14:17:08;;;;;;;4.90;2.15;;;;;;;;;;5040976;28;20459;-76
2023/12/22 14:19:36;;;;;;;3.53;2.00;;;;;;;;;;5040144;28;20463;-76
2023/12/22 14:22:03;;;;;;;4.68;2.10;;;;;;;;;;5043490;28;20815;-75
2023/12/22 14:24:30;;;;;;;4.63;2.03;;;;;;;;;;5042874;28;20405;-76
2023/12/22 14:26:58;;;;;;;3.72;2.10;;;;;;;;;;5044170;28;20409;-74
2023/12/22 14:29:25;;;;;;;5.32;2.40;;;;;;;;;;5042347;28;20472;-75
2023/12/22 14:31:53;;;;;;;5.37;2.50;;;;;;;;;;5042982;28;20581;-75
2023/12/22 14:34:20;;;;;;;4.65;2.53;;;;;;;;;;5041668;28;20896;-74
2023/12/22 14:36:47;;;;;;;3.80;2.10;;;;;;;;;;5042197;28;20914;-74
2023/12/22 14:39:14;;;;;;;5.97;1.98;;;;;;;;;;5045155;28;20881;-74
2023/12/22 14:41:41;;;;;;;5.88;2.17;;;;;;;;;;5044261;28;20429;-74
2023/12/22 14:44:10;;;;;;;5.68;2.60;;;;;;;;;;5041666;28;20923;-74